createdAt,value
2023-01-21T00:03:21.687Z,1.00
2023-01-21T00:08:26.937Z,1.37
2023-01-21T00:13:30.322Z,1.60
2023-01-21T00:18:35.356Z,1.33
2023-01-21T00:23:40.241Z,1.80
2023-01-21T00:28:44.327Z,1.43
2023-01-21T00:33:50.347Z,1.47
2023-01-21T00:38:55.094Z,1.97
2023-01-21T00:43:58.788Z,1.80
2023-01-21T00:49:02.168Z,1.83
2023-01-21T00:54:07.081Z,1.90
2023-01-21T00:59:10.714Z,1.80
2023-01-21T01:04:14.593Z,2.40
2023-01-21T01:09:19.500Z,1.87
2023-01-21T01:14:23.470Z,1.90
2023-01-21T01:19:26.949Z,2.27
2023-01-21T01:24:32.806Z,2.23
2023-01-21T01:29:36.442Z,2.33
2023-01-21T01:34:39.866Z,2.23
2023-01-21T01:39:44.637Z,2.10
2023-01-21T01:45:00.091Z,2.60
2023-01-21T01:50:04.919Z,1.83
2023-01-21T01:55:11.903Z,2.37
2023-01-21T02:00:17.512Z,2.30
2023-01-21T02:05:21.661Z,2.10
2023-01-21T02:10:26.776Z,1.90
2023-01-21T02:15:37.029Z,1.90
2023-01-21T02:21:03.558Z,2.80
2023-01-21T02:26:35.608Z,2.40
2023-01-21T02:31:54.913Z,2.17
2023-01-21T02:37:08.273Z,2.50
2023-01-21T02:42:18.543Z,2.80
2023-01-21T02:47:30.901Z,2.20
2023-01-21T02:52:35.687Z,2.77
2023-01-21T02:57:44.100Z,2.47
2023-01-21T03:03:07.880Z,2.73
2023-01-21T03:08:16.364Z,2.70
2023-01-21T03:13:40.104Z,2.07
2023-01-21T03:18:47.868Z,3.30
2023-01-21T03:23:54.656Z,2.30
2023-01-21T03:29:02.365Z,2.80
2023-01-21T03:34:08.431Z,2.90
2023-01-21T03:39:19.196Z,3.40
2023-01-21T03:44:23.151Z,2.67
2023-01-21T03:49:33.705Z,3.03
2023-01-21T03:54:38.525Z,2.90
2023-01-21T03:59:41.922Z,2.60
2023-01-21T04:04:45.346Z,2.57
2023-01-21T04:09:50.793Z,2.70
2023-01-21T04:14:54.207Z,2.53
2023-01-21T04:19:57.622Z,2.47
2023-01-21T04:25:02.371Z,2.70
2023-01-21T04:30:07.715Z,2.37
2023-01-21T04:35:11.736Z,2.87
2023-01-21T04:40:17.263Z,2.97
2023-01-21T04:45:21.220Z,3.20
2023-01-21T04:50:24.542Z,3.93
2023-01-21T04:55:29.631Z,4.87
2023-01-21T05:00:33.031Z,6.20
2023-01-21T05:05:36.733Z,4.53
2023-01-21T05:10:41.828Z,3.40
2023-01-21T05:15:45.161Z,3.67
2023-01-21T05:20:48.680Z,3.50
2023-01-21T05:25:53.456Z,2.87
2023-01-21T05:31:00.567Z,3.10
2023-01-21T05:36:05.396Z,2.83
2023-01-21T05:41:10.192Z,3.20
2023-01-21T05:46:13.592Z,3.23
2023-01-21T05:51:17.039Z,3.20
2023-01-21T05:56:21.821Z,2.93
2023-01-21T06:01:25.209Z,4.00
2023-01-21T06:06:28.594Z,23.30
2023-01-21T06:11:33.708Z,24.87
2023-01-21T06:16:37.117Z,4.53
2023-01-21T06:21:40.835Z,3.30
2023-01-21T06:26:45.895Z,2.50
2023-01-21T06:31:49.343Z,2.57
2023-01-21T06:36:53.802Z,2.60
2023-01-21T06:41:58.632Z,2.20
2023-01-21T06:47:02.213Z,2.50
2023-01-21T06:52:06.175Z,2.60
2023-01-21T06:57:11.323Z,3.73
2023-01-21T07:02:15.180Z,2.97
2023-01-21T07:07:18.754Z,2.60
2023-01-21T07:12:23.553Z,2.30
2023-01-21T07:17:26.940Z,2.57
2023-01-21T07:22:30.665Z,2.40
2023-01-21T07:27:35.496Z,2.40
2023-01-21T07:32:38.904Z,2.60
2023-01-21T07:37:42.647Z,2.40
2023-01-21T07:42:52.599Z,2.60
2023-01-21T07:47:56.284Z,2.60
2023-01-21T07:52:59.807Z,2.70
2023-01-21T07:58:04.897Z,3.30
2023-01-21T08:03:08.309Z,2.37
2023-01-21T08:08:12.098Z,2.17
2023-01-21T08:13:16.883Z,1.97
2023-01-21T08:18:22.179Z,2.87
2023-01-21T08:23:26.399Z,2.20
2023-01-21T08:28:31.150Z,1.90
2023-01-21T08:33:34.606Z,2.27
2023-01-21T08:38:38.024Z,1.93
2023-01-21T08:43:42.949Z,1.70
2023-01-21T08:48:46.293Z,1.80
2023-01-21T08:53:50.632Z,1.60
2023-01-21T08:58:57.929Z,2.40
2023-01-21T09:04:02.245Z,1.67
2023-01-21T09:09:05.974Z,1.57
2023-01-21T09:14:11.119Z,1.30
2023-01-21T09:19:14.435Z,1.70
2023-01-21T09:24:17.934Z,1.30
2023-01-21T09:29:22.783Z,0.90
2023-01-21T09:34:26.464Z,0.90
2023-01-21T09:39:29.816Z,1.30
2023-01-21T09:44:43.925Z,2.00
2023-01-21T09:49:50.922Z,1.27
2023-01-21T09:54:55.015Z,1.13
2023-01-21T10:00:13.534Z,1.20
2023-01-21T10:05:34.291Z,1.20
2023-01-21T10:10:47.407Z,1.50
2023-01-21T10:16:01.766Z,1.20
2023-01-21T10:21:12.002Z,1.20
2023-01-21T10:26:16.563Z,1.10
2023-01-21T10:31:24.885Z,1.17
2023-01-21T10:36:49.421Z,1.17
2023-01-21T10:42:07.795Z,1.50
2023-01-21T10:47:23.835Z,1.40
2023-01-21T10:52:35.451Z,1.40
2023-01-21T10:57:51.214Z,1.50
2023-01-21T11:02:58.752Z,1.83
2023-01-21T11:08:03.971Z,1.63
2023-01-21T11:13:10.661Z,2.03
2023-01-21T11:18:30.349Z,2.20
2023-01-21T11:23:35.889Z,1.60
2023-01-21T11:28:39.587Z,2.23
2023-01-21T11:33:45.031Z,1.87
2023-01-21T11:39:00.876Z,1.83
2023-01-21T11:44:18.219Z,2.10
2023-01-21T11:49:26.652Z,1.43
2023-01-21T11:54:30.045Z,1.93
2023-01-21T11:59:35.240Z,1.90
2023-01-21T12:04:45.184Z,2.80
2023-01-21T12:09:56.447Z,1.80
2023-01-21T12:15:05.143Z,2.77
2023-01-21T12:20:24.798Z,1.80
2023-01-21T12:25:40.798Z,1.90
2023-01-21T12:30:55.101Z,2.10
2023-01-21T12:36:05.047Z,2.40
2023-01-21T12:41:13.245Z,2.10
2023-01-21T12:46:20.203Z,2.27
2023-01-21T12:51:29.404Z,2.37
2023-01-21T12:56:40.501Z,2.60
2023-01-21T13:01:55.237Z,2.47
2023-01-21T13:07:05.795Z,2.13
2023-01-21T13:12:15.588Z,2.33
2023-01-21T13:17:23.041Z,1.97
2023-01-21T13:22:41.671Z,1.83
2023-01-21T13:27:53.442Z,2.13
2023-01-21T13:33:15.034Z,1.90
2023-01-21T13:38:27.297Z,1.80
2023-01-21T13:43:55.826Z,1.80
2023-01-21T13:49:12.977Z,1.90
2023-01-21T13:54:53.603Z,2.00
2023-01-21T14:00:04.845Z,1.70
2023-01-21T14:05:21.291Z,1.97
2023-01-21T14:10:30.665Z,2.03
2023-01-21T14:15:49.467Z,2.30
2023-01-21T14:21:11.063Z,2.00
2023-01-21T14:26:33.340Z,2.33
2023-01-21T14:31:41.403Z,2.13
2023-01-21T14:36:52.799Z,2.23
2023-01-21T14:42:03.447Z,2.80
2023-01-21T14:47:42.344Z,3.13
2023-01-21T14:52:47.724Z,2.50
2023-01-21T14:57:54.835Z,2.70
2023-01-21T15:03:16.297Z,2.90
2023-01-21T15:08:24.976Z,3.40
2023-01-21T15:13:36.867Z,3.33
2023-01-21T15:18:44.144Z,2.60
2023-01-21T15:23:51.627Z,3.00
2023-01-21T15:28:56.812Z,3.30
2023-01-21T15:34:02.151Z,3.07
2023-01-21T15:39:14.214Z,3.50
2023-01-21T15:44:45.494Z,4.57
2023-01-21T15:50:00.207Z,4.83
2023-01-21T15:55:19.492Z,3.00
2023-01-21T16:00:39.183Z,3.13
2023-01-21T16:05:51.026Z,4.03
2023-01-21T16:11:07.512Z,3.67
2023-01-21T16:16:21.443Z,3.60
2023-01-21T16:21:30.045Z,3.63
2023-01-21T16:26:34.310Z,3.23
2023-01-21T16:31:48.249Z,3.23
2023-01-21T16:36:51.743Z,4.33
2023-01-21T16:42:02.993Z,4.23
2023-01-21T16:47:21.596Z,3.80
2023-01-21T16:52:26.655Z,4.13
2023-01-21T16:57:32.195Z,4.03
2023-01-21T17:02:37.962Z,4.30
2023-01-21T17:07:45.757Z,4.97
2023-01-21T17:12:50.967Z,4.80
2023-01-21T17:17:58.138Z,4.57
2023-01-21T17:23:05.139Z,4.57
2023-01-21T17:28:18.293Z,5.27
2023-01-21T17:33:32.161Z,5.10
2023-01-21T17:38:40.768Z,4.90
2023-01-21T17:43:51.180Z,5.27
2023-01-21T17:48:58.969Z,5.77
2023-01-21T17:54:05.417Z,4.93
2023-01-21T17:59:37.728Z,5.63
2023-01-21T18:04:43.848Z,5.40
2023-01-21T18:09:47.261Z,5.33
2023-01-21T18:14:51.076Z,5.37
2023-01-21T18:19:57.870Z,4.80
2023-01-21T18:25:03.127Z,4.47
2023-01-21T18:30:15.225Z,4.53
2023-01-21T18:35:23.014Z,4.30
2023-01-21T18:40:26.744Z,4.30
2023-01-21T18:45:30.318Z,5.63
2023-01-21T18:50:35.374Z,4.50
2023-01-21T18:55:38.890Z,4.53
2023-01-21T19:00:43.368Z,4.53
2023-01-21T19:05:49.361Z,4.00
2023-01-21T19:10:53.013Z,4.63
2023-01-21T19:15:57.769Z,4.87
2023-01-21T19:21:02.633Z,4.50
2023-01-21T19:26:06.526Z,4.40
2023-01-21T19:31:10.238Z,4.10
2023-01-21T19:36:19.817Z,4.17
2023-01-21T19:41:23.428Z,3.70
2023-01-21T19:46:28.988Z,3.97
2023-01-21T19:51:34.645Z,3.70
2023-01-21T19:56:38.161Z,4.00
2023-01-21T20:01:41.943Z,4.20
2023-01-21T20:06:46.980Z,3.40
2023-01-21T20:11:50.419Z,3.53
2023-01-21T20:16:56.590Z,4.70
2023-01-21T20:22:02.872Z,3.57
2023-01-21T20:27:10.743Z,4.17
2023-01-21T20:32:14.988Z,3.63
2023-01-21T20:37:20.121Z,3.23
2023-01-21T20:42:23.452Z,3.57
2023-01-21T20:47:38.174Z,3.20
2023-01-21T20:52:43.685Z,3.30
2023-01-21T20:57:47.341Z,3.40
2023-01-21T21:02:51.012Z,3.20
2023-01-21T21:07:56.443Z,3.00
2023-01-21T21:12:59.985Z,3.20
2023-01-21T21:18:04.652Z,3.20
2023-01-21T21:23:13.456Z,3.40
2023-01-21T21:28:19.065Z,3.77
2023-01-21T21:33:23.449Z,3.50
2023-01-21T21:38:28.246Z,3.23
2023-01-21T21:43:35.954Z,3.27
2023-01-21T21:48:39.496Z,2.80
2023-01-21T21:53:44.949Z,2.80
2023-01-21T21:58:49.612Z,3.33
2023-01-21T22:03:53.608Z,2.67
2023-01-21T22:08:59.724Z,3.07
2023-01-21T22:14:04.556Z,2.70
2023-01-21T22:19:08.208Z,2.67
2023-01-21T22:24:13.030Z,2.90
2023-01-21T22:29:16.773Z,3.03
2023-01-21T22:34:20.200Z,2.73
2023-01-21T22:39:25.070Z,3.17
2023-01-21T22:44:28.841Z,2.90
2023-01-21T22:49:32.492Z,3.87
2023-01-21T22:54:37.277Z,3.30
2023-01-21T22:59:40.902Z,2.93
2023-01-21T23:04:44.520Z,2.67
2023-01-21T23:09:49.600Z,3.10
2023-01-21T23:14:53.297Z,2.90
2023-01-21T23:19:56.995Z,2.63
2023-01-21T23:25:02.423Z,2.80
2023-01-21T23:30:07.551Z,2.60
2023-01-21T23:35:11.419Z,2.83
2023-01-21T23:40:16.781Z,2.80
2023-01-21T23:45:20.358Z,2.90
2023-01-21T23:50:23.890Z,2.63
2023-01-21T23:55:29.079Z,3.67
